createdAt,value
2019-05-12T00:02:55.018Z,3.13
2019-05-12T00:08:04.262Z,2.90
2019-05-12T00:13:13.326Z,5.11
2019-05-12T00:18:22.530Z,3.55
2019-05-12T00:23:31.590Z,2.45
2019-05-12T00:28:40.813Z,5.38
2019-05-12T00:33:49.883Z,4.01
2019-05-12T00:38:59.025Z,2.56
2019-05-12T00:44:08.826Z,4.05
2019-05-12T00:49:18.642Z,2.34
2019-05-12T00:54:25.551Z,4.34
2019-05-12T00:59:34.654Z,3.08
2019-05-12T01:04:43.738Z,6.03
2019-05-12T01:09:52.868Z,2.85
2019-05-12T01:15:02.017Z,2.64
2019-05-12T01:20:11.268Z,2.10
2019-05-12T01:25:20.372Z,3.07
2019-05-12T01:30:29.680Z,2.26
2019-05-12T01:35:39.286Z,1.81
2019-05-12T01:40:48.026Z,3.28
2019-05-12T01:45:58.627Z,2.70
2019-05-12T01:51:04.838Z,2.49
2019-05-12T01:56:13.926Z,2.99
2019-05-12T02:01:23.068Z,2.12
2019-05-12T02:06:32.148Z,2.52
2019-05-12T02:11:41.330Z,2.11
2019-05-12T02:16:50.394Z,2.57
2019-05-12T02:21:59.632Z,2.36
2019-05-12T02:27:08.749Z,1.84
2019-05-12T02:32:18.177Z,1.86
2019-05-12T02:37:27.327Z,1.85
2019-05-12T02:42:36.525Z,3.55
2019-05-12T02:47:45.979Z,1.69
2019-05-12T02:52:54.655Z,1.52
2019-05-12T02:58:06.312Z,1.63
2019-05-12T03:03:05.429Z,2.34
2019-05-12T03:08:15.322Z,2.52
2019-05-12T03:13:24.995Z,1.62
2019-05-12T03:18:30.620Z,1.64
2019-05-12T03:23:39.748Z,3.18
2019-05-12T03:28:48.819Z,1.67
2019-05-12T03:34:00.114Z,2.45
2019-05-12T03:39:06.618Z,1.44
2019-05-12T03:44:15.852Z,2.65
2019-05-12T03:49:24.927Z,2.26
2019-05-12T03:54:34.921Z,1.73
2019-05-12T03:59:45.023Z,2.24
2019-05-12T04:04:51.356Z,1.16
2019-05-12T04:10:00.467Z,2.42
2019-05-12T04:15:09.707Z,1.60
2019-05-12T04:20:18.780Z,2.08
2019-05-12T04:25:46.371Z,2.33
2019-05-12T04:30:36.572Z,1.84
2019-05-12T04:35:45.779Z,1.92
2019-05-12T04:40:55.418Z,1.90
2019-05-12T04:46:05.066Z,3.36
2019-05-12T04:51:15.173Z,1.85
2019-05-12T04:56:20.920Z,2.22
2019-05-12T05:01:29.972Z,1.97
2019-05-12T05:06:39.262Z,3.15
2019-05-12T05:11:48.342Z,1.91
2019-05-12T05:16:57.557Z,2.17
2019-05-12T05:22:06.654Z,2.03
2019-05-12T05:27:15.931Z,2.71
2019-05-12T05:32:25.022Z,2.33
2019-05-12T05:37:39.566Z,1.82
2019-05-12T05:42:43.960Z,2.46
2019-05-12T05:47:54.260Z,1.69
2019-05-12T05:53:00.364Z,3.04
2019-05-12T05:58:10.618Z,2.55
2019-05-12T06:03:23.247Z,1.75
2019-05-12T06:08:26.991Z,1.95
2019-05-12T06:13:36.075Z,3.30
2019-05-12T06:18:45.283Z,1.38
2019-05-12T06:23:54.366Z,2.20
2019-05-12T06:29:04.441Z,1.33
2019-05-12T06:34:15.503Z,1.92
2019-05-12T06:39:20.939Z,1.62
2019-05-12T06:44:29.918Z,2.00
2019-05-12T06:49:39.085Z,2.13
2019-05-12T06:54:51.326Z,1.92
2019-05-12T06:59:56.818Z,3.02
2019-05-12T07:05:05.897Z,1.04
2019-05-12T07:10:35.121Z,2.18
2019-05-12T07:15:23.698Z,2.25
2019-05-12T07:20:35.432Z,2.55
2019-05-12T07:25:41.514Z,2.37
2019-05-12T07:30:50.690Z,2.87
2019-05-12T07:36:01.165Z,3.49
2019-05-12T07:41:10.753Z,3.19
2019-05-12T07:46:17.174Z,3.29
2019-05-12T07:51:30.224Z,3.37
2019-05-12T07:56:35.778Z,1.52
2019-05-12T08:01:50.736Z,3.80
2019-05-12T08:06:53.828Z,2.75
2019-05-12T08:12:01.226Z,2.59
2019-05-12T08:17:14.203Z,1.77
2019-05-12T08:22:24.050Z,2.69
2019-05-12T08:27:27.617Z,1.62
2019-05-12T08:32:36.734Z,1.24
2019-05-12T08:37:45.911Z,1.73
2019-05-12T08:42:59.465Z,3.07
2019-05-12T08:48:03.972Z,3.10
2019-05-12T08:53:20.486Z,2.82
2019-05-12T08:58:31.542Z,3.28
2019-05-12T09:03:30.667Z,2.25
2019-05-12T09:08:44.803Z,3.22
2019-05-12T09:13:52.533Z,3.38
2019-05-12T09:18:56.879Z,4.02
2019-05-12T09:24:06.257Z,3.27
2019-05-12T09:29:15.320Z,2.73
2019-05-12T09:34:24.496Z,3.79
2019-05-12T09:39:42.289Z,2.46
2019-05-12T09:44:43.888Z,3.17
2019-05-12T09:49:51.036Z,3.92
2019-05-12T09:55:00.171Z,2.54
2019-05-12T10:00:09.283Z,3.35
2019-05-12T10:05:18.502Z,2.80
2019-05-12T10:10:29.016Z,2.14
2019-05-12T10:15:36.321Z,2.72
2019-05-12T10:20:45.457Z,2.73
2019-05-12T10:25:54.746Z,2.56
2019-05-12T10:31:04.256Z,3.04
2019-05-12T10:36:12.636Z,2.29
2019-05-12T10:41:23.639Z,1.76
2019-05-12T10:46:30.434Z,2.33
2019-05-12T10:51:39.589Z,3.05
2019-05-12T10:56:48.831Z,2.71
2019-05-12T11:01:57.976Z,2.07
2019-05-12T11:07:07.893Z,2.94
2019-05-12T11:12:19.256Z,3.07
2019-05-12T11:17:25.714Z,2.32
2019-05-12T11:22:34.862Z,1.68
2019-05-12T11:27:44.113Z,2.46
2019-05-12T11:32:54.081Z,2.37
2019-05-12T11:38:04.135Z,1.28
2019-05-12T11:43:10.530Z,2.12
2019-05-12T11:48:19.695Z,3.17
2019-05-12T11:53:31.176Z,2.28
2019-05-12T11:58:41.242Z,1.22
2019-05-12T12:03:46.408Z,2.25
2019-05-12T12:08:55.614Z,3.23
2019-05-12T12:14:08.422Z,2.37
2019-05-12T12:19:13.514Z,1.50
2019-05-12T12:24:29.940Z,2.75
2019-05-12T12:29:31.387Z,2.51
2019-05-12T12:34:40.500Z,4.37
2019-05-12T12:39:49.772Z,2.80
2019-05-12T12:45:00.571Z,2.53
2019-05-12T12:50:07.670Z,2.73
2019-05-12T12:55:16.746Z,1.55
2019-05-12T13:00:32.324Z,6.85
2019-05-12T13:05:34.656Z,2.84
2019-05-12T13:10:47.115Z,2.07
2019-05-12T13:15:53.468Z,1.79
2019-05-12T13:21:03.228Z,2.56
2019-05-12T13:26:09.724Z,3.05
2019-05-12T13:31:18.925Z,2.55
2019-05-12T13:36:29.371Z,1.85
2019-05-12T13:41:36.732Z,1.58
2019-05-12T13:46:48.913Z,2.63
2019-05-12T13:51:54.571Z,2.24
2019-05-12T13:57:11.587Z,4.32
2019-05-12T14:02:16.206Z,3.40
2019-05-12T14:07:23.534Z,2.67
2019-05-12T14:12:30.217Z,3.37
2019-05-12T14:17:40.579Z,7.40
2019-05-12T14:22:48.026Z,3.00
2019-05-12T14:27:59.366Z,7.57
2019-05-12T14:33:05.998Z,8.54
2019-05-12T14:38:19.308Z,10.49
2019-05-12T14:43:24.239Z,19.27
2019-05-12T14:48:33.545Z,22.23
2019-05-12T14:53:41.279Z,15.65
2019-05-12T14:58:55.184Z,19.10
2019-05-12T15:03:59.122Z,39.08
2019-05-12T15:09:11.488Z,9.50
2019-05-12T15:14:16.925Z,10.32
2019-05-12T15:19:29.675Z,5.19
2019-05-12T15:24:34.806Z,5.88
2019-05-12T15:29:43.916Z,7.76
2019-05-12T15:34:53.114Z,5.47
2019-05-12T15:40:04.231Z,5.34
2019-05-12T15:45:12.718Z,5.14
2019-05-12T15:50:19.678Z,5.46
2019-05-12T15:55:32.659Z,7.48
2019-05-12T16:00:38.401Z,12.02
2019-05-12T16:05:46.418Z,29.17
2019-05-12T16:10:56.249Z,18.66
2019-05-12T16:16:06.590Z,11.79
2019-05-12T16:21:14.466Z,10.37
2019-05-12T16:26:21.584Z,3.92
2019-05-12T16:31:30.658Z,4.99
2019-05-12T16:36:41.118Z,2.51
2019-05-12T16:41:48.692Z,2.78
2019-05-12T16:46:57.940Z,2.20
2019-05-12T16:52:07.162Z,2.75
2019-05-12T16:57:18.271Z,1.92
2019-05-12T17:02:37.477Z,2.19
2019-05-12T17:07:34.412Z,1.91
2019-05-12T17:12:43.677Z,2.86
2019-05-12T17:17:59.289Z,1.90
2019-05-12T17:23:00.526Z,2.22
2019-05-12T17:28:08.798Z,2.50
2019-05-12T17:33:22.889Z,2.55
2019-05-12T17:38:29.848Z,2.69
2019-05-12T17:43:35.338Z,1.81
2019-05-12T17:48:44.957Z,1.91
2019-05-12T17:53:54.046Z,2.29
2019-05-12T17:59:04.205Z,1.91
2019-05-12T18:04:13.690Z,2.71
2019-05-12T18:09:20.229Z,2.64
2019-05-12T18:14:28.587Z,2.17
2019-05-12T18:19:37.850Z,2.44
2019-05-12T18:24:50.596Z,2.03
2019-05-12T18:29:55.573Z,2.16
2019-05-12T18:35:04.643Z,2.34
2019-05-12T18:40:14.735Z,3.15
2019-05-12T18:45:23.956Z,2.12
2019-05-12T18:50:33.853Z,2.87
2019-05-12T18:55:40.518Z,2.29
2019-05-12T19:00:48.783Z,3.60
2019-05-12T19:05:58.275Z,2.70
2019-05-12T19:11:18.833Z,2.36
2019-05-12T19:16:15.270Z,3.62
2019-05-12T19:21:24.567Z,3.18
2019-05-12T19:26:38.452Z,1.93
2019-05-12T19:31:51.295Z,2.65
2019-05-12T19:36:51.049Z,2.06
2019-05-12T19:42:00.160Z,4.74
2019-05-12T19:47:09.347Z,3.58
2019-05-12T19:52:18.588Z,3.56
2019-05-12T19:57:27.661Z,2.14
2019-05-12T20:02:36.872Z,3.22
2019-05-12T20:07:45.967Z,4.22
2019-05-12T20:12:57.072Z,3.91
2019-05-12T20:18:04.368Z,2.55
2019-05-12T20:23:14.176Z,4.22
2019-05-12T20:28:24.008Z,3.42
2019-05-12T20:33:30.019Z,4.28
2019-05-12T20:38:40.692Z,4.27
2019-05-12T20:43:48.784Z,5.09
2019-05-12T20:48:47.903Z,3.27
2019-05-12T20:53:57.176Z,3.91
2019-05-12T20:59:06.259Z,2.83
2019-05-12T21:04:15.537Z,4.07
2019-05-12T21:09:24.635Z,2.83
2019-05-12T21:14:33.828Z,4.46
2019-05-12T21:19:55.706Z,4.07
2019-05-12T21:24:53.380Z,3.80
2019-05-12T21:30:00.539Z,2.65
2019-05-12T21:35:19.277Z,2.82
2019-05-12T21:40:24.275Z,2.96
2019-05-12T21:45:30.757Z,2.74
2019-05-12T21:50:38.171Z,2.50
2019-05-12T21:55:44.378Z,1.94
2019-05-12T22:00:59.540Z,2.78
2019-05-12T22:06:06.421Z,2.96
2019-05-12T22:11:11.583Z,2.14
2019-05-12T22:16:18.314Z,3.68
2019-05-12T22:21:27.441Z,2.69
2019-05-12T22:26:40.030Z,2.55
2019-05-12T22:31:48.092Z,2.75
2019-05-12T22:36:57.798Z,2.92
2019-05-12T22:42:03.567Z,1.99
2019-05-12T22:47:13.603Z,2.29
2019-05-12T22:52:20.320Z,4.20
2019-05-12T22:57:38.242Z,2.76
2019-05-12T23:02:38.236Z,1.87
2019-05-12T23:07:47.466Z,2.21
2019-05-12T23:13:01.594Z,5.37
2019-05-12T23:18:05.283Z,2.46
2019-05-12T23:23:18.591Z,2.12
2019-05-12T23:28:23.019Z,2.35
2019-05-12T23:33:36.300Z,2.57
2019-05-12T23:38:40.822Z,3.19
2019-05-12T23:43:49.949Z,3.12
2019-05-12T23:48:59.134Z,2.51
2019-05-12T23:54:08.237Z,3.43
2019-05-12T23:59:17.417Z,2.54
